createdAt,value
2018-12-07T00:01:40.855Z,5.30
2018-12-07T00:04:16.373Z,5.62
2018-12-07T00:06:46.644Z,5.13
2018-12-07T00:09:15.758Z,6.20
2018-12-07T00:11:45.917Z,5.35
2018-12-07T00:14:14.720Z,5.03
2018-12-07T00:16:55.172Z,5.10
2018-12-07T00:19:27.682Z,5.30
2018-12-07T00:21:57.898Z,4.60
2018-12-07T00:24:27.908Z,5.45
2018-12-07T00:27:07.578Z,4.45
2018-12-07T00:29:42.662Z,3.27
2018-12-07T00:32:11.670Z,4.03
2018-12-07T00:34:44.079Z,3.30
2018-12-07T00:37:16.150Z,3.65
2018-12-07T00:39:44.234Z,3.92
2018-12-07T00:42:13.229Z,3.30
2018-12-07T00:44:41.406Z,3.45
2018-12-07T00:47:09.503Z,3.65
2018-12-07T00:49:38.104Z,3.20
2018-12-07T00:52:06.255Z,2.72
2018-12-07T00:54:34.435Z,2.95
2018-12-07T00:57:02.518Z,2.77
2018-12-07T00:59:30.611Z,2.42
2018-12-07T01:01:58.683Z,2.25
2018-12-07T01:04:26.807Z,2.25
2018-12-07T01:06:54.973Z,2.37
2018-12-07T01:09:23.069Z,2.33
2018-12-07T01:11:51.168Z,2.00
2018-12-07T01:14:19.334Z,1.87
2018-12-07T01:16:47.544Z,1.70
2018-12-07T01:19:15.635Z,1.65
2018-12-07T01:21:43.720Z,1.70
2018-12-07T01:24:11.809Z,1.65
2018-12-07T01:26:39.958Z,1.57
2018-12-07T01:29:08.150Z,1.25
2018-12-07T01:31:36.314Z,1.57
2018-12-07T01:34:04.398Z,1.27
2018-12-07T01:36:32.511Z,1.50
2018-12-07T01:39:00.758Z,1.27
2018-12-07T01:41:28.849Z,1.40
2018-12-07T01:43:57.007Z,1.27
2018-12-07T01:46:25.189Z,1.47
2018-12-07T01:48:53.290Z,1.65
2018-12-07T01:51:21.488Z,1.40
2018-12-07T01:53:49.605Z,1.42
2018-12-07T01:56:17.746Z,1.60
2018-12-07T01:58:45.905Z,1.35
2018-12-07T02:01:13.994Z,1.30
2018-12-07T02:03:42.166Z,1.50
2018-12-07T02:06:10.349Z,1.22
2018-12-07T02:08:38.565Z,1.12
2018-12-07T02:11:06.692Z,1.67
2018-12-07T02:13:34.972Z,1.40
2018-12-07T02:16:03.192Z,1.70
2018-12-07T02:18:31.425Z,1.80
2018-12-07T02:20:59.594Z,1.47
2018-12-07T02:23:27.681Z,1.85
2018-12-07T02:25:55.770Z,1.40
2018-12-07T02:28:23.898Z,1.77
2018-12-07T02:30:51.986Z,1.40
2018-12-07T02:33:20.094Z,1.40
2018-12-07T02:35:48.246Z,1.25
2018-12-07T02:38:16.414Z,1.25
2018-12-07T02:40:44.628Z,1.60
2018-12-07T02:43:12.840Z,1.60
2018-12-07T02:45:41.115Z,1.60
2018-12-07T02:48:09.292Z,1.70
2018-12-07T02:50:37.489Z,1.55
2018-12-07T02:53:05.639Z,1.30
2018-12-07T02:55:33.819Z,1.60
2018-12-07T02:58:02.020Z,1.70
2018-12-07T03:00:30.214Z,1.57
2018-12-07T03:02:58.500Z,1.20
2018-12-07T03:05:26.676Z,1.60
2018-12-07T03:07:54.902Z,1.37
2018-12-07T03:10:22.998Z,1.60
2018-12-07T03:12:51.178Z,1.72
2018-12-07T03:15:19.414Z,1.70
2018-12-07T03:17:47.568Z,1.17
2018-12-07T03:20:15.651Z,1.75
2018-12-07T03:22:43.744Z,1.52
2018-12-07T03:25:11.970Z,1.20
2018-12-07T03:27:40.121Z,1.65
2018-12-07T03:30:08.290Z,1.60
2018-12-07T03:32:36.429Z,1.80
2018-12-07T03:35:04.838Z,1.30
2018-12-07T03:37:33.074Z,1.30
2018-12-07T03:40:01.218Z,1.30
2018-12-07T03:42:29.334Z,1.30
2018-12-07T03:44:57.420Z,1.25
2018-12-07T03:47:25.598Z,1.50
2018-12-07T03:49:53.691Z,1.37
2018-12-07T03:52:21.877Z,1.25
2018-12-07T03:54:50.014Z,1.20
2018-12-07T03:57:18.178Z,1.30
2018-12-07T03:59:46.277Z,1.22
2018-12-07T04:02:14.394Z,1.80
2018-12-07T04:04:42.515Z,1.12
2018-12-07T04:07:10.756Z,1.20
2018-12-07T04:09:38.853Z,1.10
2018-12-07T04:12:07.025Z,1.27
2018-12-07T04:14:35.220Z,1.07
2018-12-07T04:17:03.390Z,1.60
2018-12-07T04:19:31.484Z,1.10
2018-12-07T04:21:59.566Z,1.42
2018-12-07T04:24:27.686Z,1.10
2018-12-07T04:26:55.781Z,1.20
2018-12-07T04:29:23.884Z,1.53
2018-12-07T04:31:52.167Z,1.30
2018-12-07T04:34:20.517Z,1.00
2018-12-07T04:36:48.632Z,1.17
2018-12-07T04:39:16.796Z,1.20
2018-12-07T04:41:44.956Z,1.63
2018-12-07T04:44:13.019Z,1.43
2018-12-07T04:46:41.123Z,1.70
2018-12-07T04:49:09.295Z,1.60
2018-12-07T04:51:37.499Z,1.70
2018-12-07T04:54:05.631Z,1.80
2018-12-07T04:56:33.888Z,1.60
2018-12-07T04:59:01.963Z,1.87
2018-12-07T05:01:30.171Z,1.60
2018-12-07T05:03:58.234Z,2.10
2018-12-07T05:06:26.343Z,2.00
2018-12-07T05:08:54.561Z,2.40
2018-12-07T05:11:22.847Z,2.30
2018-12-07T05:13:51.003Z,3.23
2018-12-07T05:16:19.243Z,2.87
2018-12-07T05:18:47.470Z,3.10
2018-12-07T05:21:15.564Z,3.47
2018-12-07T05:23:43.721Z,3.20
2018-12-07T05:26:11.833Z,4.03
2018-12-07T05:28:39.923Z,4.20
2018-12-07T05:31:08.072Z,3.67
2018-12-07T05:33:36.241Z,3.60
2018-12-07T05:36:04.482Z,3.63
2018-12-07T05:38:32.670Z,3.30
2018-12-07T05:41:00.944Z,3.40
2018-12-07T05:43:29.135Z,3.37
2018-12-07T05:45:57.424Z,3.40
2018-12-07T05:48:25.675Z,3.05
2018-12-07T05:50:53.794Z,3.90
2018-12-07T05:53:21.886Z,4.00
2018-12-07T05:55:50.005Z,3.42
2018-12-07T05:58:18.065Z,3.90
2018-12-07T06:00:46.222Z,4.00
2018-12-07T06:03:14.394Z,4.03
2018-12-07T06:05:42.570Z,3.65
2018-12-07T06:08:10.650Z,4.33
2018-12-07T06:10:38.751Z,3.30
2018-12-07T06:13:06.934Z,3.05
2018-12-07T06:15:35.162Z,3.37
2018-12-07T06:18:03.350Z,2.98
2018-12-07T06:20:31.559Z,2.57
2018-12-07T06:22:59.742Z,2.75
2018-12-07T06:25:27.817Z,3.00
2018-12-07T06:27:55.893Z,3.25
2018-12-07T06:30:23.969Z,3.77
2018-12-07T06:32:52.062Z,3.40
2018-12-07T06:35:26.762Z,4.30
2018-12-07T06:37:54.854Z,4.62
2018-12-07T06:40:23.006Z,3.90
2018-12-07T06:42:51.088Z,3.67
2018-12-07T06:45:19.199Z,4.23
2018-12-07T06:47:47.297Z,4.42
2018-12-07T06:50:15.497Z,2.87
2018-12-07T06:52:43.718Z,3.98
2018-12-07T06:55:11.871Z,3.50
2018-12-07T06:57:39.953Z,2.80
2018-12-07T07:00:08.547Z,3.55
2018-12-07T07:02:36.722Z,3.02
2018-12-07T07:05:05.155Z,2.80
2018-12-07T07:07:33.252Z,2.77
2018-12-07T07:10:01.341Z,3.17
2018-12-07T07:12:29.414Z,2.70
2018-12-07T07:14:57.498Z,2.60
2018-12-07T07:17:25.658Z,2.47
2018-12-07T07:19:53.739Z,2.05
2018-12-07T07:22:21.979Z,2.43
2018-12-07T07:24:50.066Z,2.08
2018-12-07T07:27:18.173Z,1.83
2018-12-07T07:29:46.277Z,1.90
2018-12-07T07:32:14.361Z,1.98
2018-12-07T07:34:42.463Z,2.05
2018-12-07T07:37:10.546Z,2.03
2018-12-07T07:39:38.623Z,2.05
2018-12-07T07:42:06.710Z,2.20
2018-12-07T07:44:34.899Z,2.12
2018-12-07T07:47:03.001Z,2.47
2018-12-07T07:49:31.179Z,2.58
2018-12-07T07:51:59.267Z,2.30
2018-12-07T07:54:27.375Z,3.20
2018-12-07T07:56:55.470Z,1.85
2018-12-07T07:59:23.564Z,1.87
2018-12-07T08:01:51.657Z,2.15
2018-12-07T08:04:19.829Z,2.67
2018-12-07T08:06:47.919Z,2.58
2018-12-07T08:09:18.654Z,2.37
2018-12-07T08:11:50.450Z,2.10
2018-12-07T08:14:18.537Z,2.10
2018-12-07T08:16:46.686Z,3.17
2018-12-07T08:19:14.926Z,2.40
2018-12-07T08:21:43.017Z,2.15
2018-12-07T08:24:11.090Z,2.50
2018-12-07T08:26:39.337Z,2.40
2018-12-07T08:29:07.429Z,2.08
2018-12-07T08:31:35.526Z,2.10
2018-12-07T08:34:03.682Z,2.67
2018-12-07T08:36:31.778Z,2.47
2018-12-07T08:38:59.898Z,2.47
2018-12-07T08:41:28.007Z,3.08
2018-12-07T08:43:56.081Z,2.55
2018-12-07T08:46:24.259Z,1.90
2018-12-07T08:48:52.511Z,3.65
2018-12-07T08:51:20.599Z,2.25
2018-12-07T08:53:48.761Z,2.83
2018-12-07T08:56:16.979Z,1.70
2018-12-07T08:58:46.298Z,2.52
2018-12-07T09:01:14.474Z,1.72
2018-12-07T09:03:42.693Z,2.22
2018-12-07T09:06:10.789Z,2.05
2018-12-07T09:08:38.959Z,1.80
2018-12-07T09:11:07.218Z,2.08
2018-12-07T09:13:35.285Z,2.17
2018-12-07T09:16:03.467Z,2.03
2018-12-07T09:18:31.550Z,1.87
2018-12-07T09:20:59.676Z,2.20
2018-12-07T09:23:27.839Z,1.32
2018-12-07T09:25:55.928Z,1.57
2018-12-07T09:28:24.086Z,1.87
2018-12-07T09:30:52.166Z,1.70
2018-12-07T09:33:20.390Z,1.82
2018-12-07T09:35:48.490Z,1.42
2018-12-07T09:38:16.630Z,1.50
2018-12-07T09:40:44.814Z,2.00
2018-12-07T09:43:12.919Z,1.45
2018-12-07T09:45:41.005Z,1.65
2018-12-07T09:48:09.106Z,1.87
2018-12-07T09:50:37.198Z,2.77
2018-12-07T09:53:05.378Z,1.82
2018-12-07T09:55:33.547Z,1.82
2018-12-07T09:58:01.751Z,2.00
2018-12-07T10:00:29.859Z,1.95
2018-12-07T10:02:58.067Z,1.70
2018-12-07T10:05:26.717Z,2.30
2018-12-07T10:07:54.815Z,2.25
2018-12-07T10:10:22.909Z,3.05
2018-12-07T10:12:51.030Z,1.80
2018-12-07T10:15:19.601Z,1.90
2018-12-07T10:17:47.725Z,2.35
2018-12-07T10:20:15.959Z,2.05
2018-12-07T10:22:44.062Z,2.12
2018-12-07T10:25:12.207Z,1.80
2018-12-07T10:27:40.289Z,1.65
2018-12-07T10:30:08.437Z,2.20
2018-12-07T10:32:36.538Z,2.10
2018-12-07T10:35:05.916Z,2.10
2018-12-07T10:37:33.997Z,1.85
2018-12-07T10:40:02.100Z,2.85
2018-12-07T10:42:30.342Z,2.85
2018-12-07T10:44:58.421Z,1.80
2018-12-07T10:47:26.489Z,1.90
2018-12-07T10:49:54.569Z,2.65
2018-12-07T10:52:22.746Z,1.75
2018-12-07T10:54:50.848Z,1.90
2018-12-07T10:57:18.913Z,2.20
2018-12-07T10:59:47.089Z,3.08
2018-12-07T11:02:20.548Z,2.00
2018-12-07T11:04:54.082Z,2.70
2018-12-07T11:07:27.549Z,2.20
2018-12-07T11:10:01.108Z,3.10
2018-12-07T11:12:34.620Z,2.20
2018-12-07T11:15:08.186Z,2.60
2018-12-07T11:17:41.642Z,2.40
2018-12-07T11:20:15.201Z,2.25
2018-12-07T11:22:48.574Z,1.80
2018-12-07T11:25:21.922Z,2.50
2018-12-07T11:27:55.462Z,2.20
2018-12-07T11:30:30.794Z,1.82
2018-12-07T11:33:04.861Z,1.87
2018-12-07T11:35:36.590Z,3.17
2018-12-07T11:38:04.826Z,2.58
2018-12-07T11:40:33.014Z,1.60
2018-12-07T11:45:35.697Z,2.02
2018-12-07T11:48:03.854Z,2.83
2018-12-07T11:50:31.929Z,2.10
2018-12-07T11:53:00.026Z,2.67
2018-12-07T11:55:28.117Z,2.75
2018-12-07T11:57:56.187Z,2.30
2018-12-07T12:00:24.354Z,1.57
2018-12-07T12:02:52.497Z,1.85
2018-12-07T12:05:20.769Z,2.15
2018-12-07T12:07:48.838Z,2.27
2018-12-07T12:10:16.934Z,1.42
2018-12-07T12:12:47.959Z,1.65
2018-12-07T12:15:16.039Z,1.42
2018-12-07T12:17:44.102Z,1.72
2018-12-07T12:20:12.422Z,1.85
2018-12-07T12:22:40.492Z,1.40
2018-12-07T12:25:08.693Z,1.85
2018-12-07T12:27:36.841Z,1.27
2018-12-07T12:30:05.429Z,2.70
2018-12-07T12:32:33.501Z,1.87
2018-12-07T12:35:01.586Z,1.75
2018-12-07T12:37:36.303Z,1.70
2018-12-07T12:40:04.762Z,2.62
2018-12-07T12:42:32.824Z,1.83
2018-12-07T12:45:00.897Z,2.25
2018-12-07T12:47:28.974Z,1.70
2018-12-07T12:49:57.059Z,2.30
2018-12-07T12:52:25.227Z,1.52
2018-12-07T12:54:53.310Z,1.80
2018-12-07T12:57:21.383Z,1.77
2018-12-07T12:59:49.466Z,1.92
2018-12-07T13:02:17.614Z,1.62
2018-12-07T13:04:45.789Z,2.25
2018-12-07T13:07:13.959Z,1.92
2018-12-07T13:09:42.077Z,1.40
2018-12-07T13:12:10.243Z,1.75
2018-12-07T13:14:38.326Z,1.82
2018-12-07T13:17:06.482Z,2.20
2018-12-07T13:19:34.563Z,1.32
2018-12-07T13:22:02.805Z,1.62
2018-12-07T13:24:30.918Z,1.90
2018-12-07T13:26:59.073Z,1.75
2018-12-07T13:29:27.221Z,1.20
2018-12-07T13:31:55.838Z,1.12
2018-12-07T13:34:23.915Z,1.30
2018-12-07T13:36:52.095Z,1.17
2018-12-07T13:39:20.229Z,1.55
2018-12-07T13:41:50.502Z,1.27
2018-12-07T13:44:18.833Z,1.22
2018-12-07T13:46:47.717Z,1.30
2018-12-07T13:49:16.046Z,1.50
2018-12-07T13:51:44.239Z,1.60
2018-12-07T13:54:12.612Z,1.45
2018-12-07T13:56:41.029Z,0.98
2018-12-07T13:59:09.329Z,1.20
2018-12-07T14:01:37.571Z,1.07
2018-12-07T14:04:05.899Z,1.40
2018-12-07T14:06:34.142Z,0.90
2018-12-07T14:09:02.483Z,0.98
2018-12-07T14:11:30.702Z,0.93
2018-12-07T14:13:59.085Z,0.90
2018-12-07T14:16:27.361Z,0.90
2018-12-07T14:18:55.469Z,0.82
2018-12-07T14:21:23.750Z,0.60
2018-12-07T14:23:52.028Z,0.98
2018-12-07T14:26:20.342Z,1.00
2018-12-07T14:28:48.670Z,0.80
2018-12-07T14:31:16.888Z,0.70
2018-12-07T14:33:45.141Z,1.12
2018-12-07T14:36:13.324Z,0.60
2018-12-07T14:38:41.854Z,0.50
2018-12-07T14:41:10.234Z,0.60
2018-12-07T14:43:38.491Z,0.60
2018-12-07T14:46:06.741Z,0.80
2018-12-07T14:48:34.959Z,0.60
2018-12-07T14:51:03.149Z,0.57
2018-12-07T14:53:31.271Z,0.62
2018-12-07T14:55:59.428Z,0.60
2018-12-07T14:58:27.566Z,0.80
2018-12-07T15:00:55.681Z,0.75
2018-12-07T15:03:23.846Z,0.70
2018-12-07T15:05:52.077Z,0.60
2018-12-07T15:08:20.498Z,0.60
2018-12-07T15:10:48.934Z,0.50
2018-12-07T15:13:17.364Z,0.60
2018-12-07T15:15:45.541Z,0.70
2018-12-07T15:18:13.869Z,0.70
2018-12-07T15:20:42.025Z,0.88
2018-12-07T15:23:10.286Z,0.70
2018-12-07T15:25:38.459Z,0.88
2018-12-07T15:28:06.750Z,0.80
2018-12-07T15:30:34.993Z,1.00
2018-12-07T15:33:03.292Z,0.80
2018-12-07T15:35:31.592Z,1.00
2018-12-07T15:38:00.059Z,0.70
2018-12-07T15:40:28.425Z,0.88
2018-12-07T15:42:56.695Z,1.00
2018-12-07T15:45:25.082Z,1.00
2018-12-07T15:47:53.264Z,1.00
2018-12-07T15:50:25.003Z,0.75
2018-12-07T15:52:51.795Z,0.70
2018-12-07T15:55:20.013Z,0.80
2018-12-07T15:57:48.234Z,0.72
2018-12-07T16:00:16.450Z,0.60
2018-12-07T16:02:44.923Z,0.50
2018-12-07T16:05:13.117Z,0.53
2018-12-07T16:07:41.254Z,0.60
2018-12-07T16:10:09.636Z,0.78
2018-12-07T16:12:38.000Z,0.90
2018-12-07T16:15:06.492Z,0.75
2018-12-07T16:17:34.736Z,0.60
2018-12-07T16:20:03.020Z,0.55
2018-12-07T16:22:31.464Z,0.60
2018-12-07T16:24:59.909Z,0.90
2018-12-07T16:27:28.190Z,0.53
2018-12-07T16:29:56.572Z,0.60
2018-12-07T16:32:25.013Z,0.57
2018-12-07T16:34:53.634Z,0.80
2018-12-07T16:37:22.074Z,0.85
2018-12-07T16:39:50.467Z,0.70
2018-12-07T16:42:18.653Z,0.50
2018-12-07T16:44:46.899Z,0.50
2018-12-07T16:47:15.343Z,0.60
2018-12-07T16:49:43.473Z,0.60
2018-12-07T16:52:11.866Z,0.68
2018-12-07T16:54:40.202Z,0.68
2018-12-07T16:57:08.565Z,0.72
2018-12-07T16:59:36.985Z,0.60
2018-12-07T17:02:05.207Z,0.60
2018-12-07T17:04:33.566Z,0.60
2018-12-07T17:07:01.869Z,0.80
2018-12-07T17:09:30.189Z,0.70
2018-12-07T17:11:58.300Z,0.68
2018-12-07T17:14:26.699Z,0.70
2018-12-07T17:16:55.031Z,0.80
2018-12-07T17:19:23.179Z,0.60
2018-12-07T17:21:51.417Z,0.60
2018-12-07T17:24:19.692Z,0.70
2018-12-07T17:26:48.115Z,0.70
2018-12-07T17:29:16.469Z,0.90
2018-12-07T17:31:44.766Z,0.70
2018-12-07T17:34:13.108Z,0.88
2018-12-07T17:36:41.473Z,0.60
2018-12-07T17:39:09.582Z,0.80
2018-12-07T17:41:37.719Z,0.80
2018-12-07T17:44:06.087Z,0.90
2018-12-07T17:46:34.639Z,0.70
2018-12-07T17:49:02.932Z,0.93
2018-12-07T17:51:31.130Z,0.80
2018-12-07T17:53:59.560Z,0.80
2018-12-07T17:56:28.026Z,0.90
2018-12-07T17:58:56.293Z,0.75
2018-12-07T18:01:24.695Z,0.60
2018-12-07T18:03:52.780Z,0.90
2018-12-07T18:06:20.885Z,1.10
2018-12-07T18:08:49.319Z,0.88
2018-12-07T18:11:17.637Z,1.05
2018-12-07T18:13:47.962Z,0.70
2018-12-07T18:16:16.196Z,0.82
2018-12-07T18:18:44.313Z,0.88
2018-12-07T18:21:12.428Z,0.70
2018-12-07T18:23:40.748Z,0.80
2018-12-07T18:26:09.040Z,0.93
2018-12-07T18:28:37.343Z,0.90
2018-12-07T18:31:05.750Z,1.00
2018-12-07T18:33:33.854Z,0.98
2018-12-07T18:36:02.153Z,1.00
2018-12-07T18:38:30.527Z,0.82
2018-12-07T18:40:58.729Z,0.95
2018-12-07T18:43:27.134Z,0.90
2018-12-07T18:45:55.496Z,0.70
2018-12-07T18:48:23.799Z,1.00
2018-12-07T18:50:51.987Z,0.80
2018-12-07T18:53:20.376Z,0.95
2018-12-07T18:55:49.039Z,0.68
2018-12-07T18:58:17.380Z,0.80
2018-12-07T19:00:45.742Z,0.78
2018-12-07T19:03:14.052Z,1.00
2018-12-07T19:05:42.362Z,1.20
2018-12-07T19:08:10.763Z,0.70
2018-12-07T19:10:39.091Z,0.85
2018-12-07T19:13:07.830Z,0.90
2018-12-07T19:15:36.017Z,0.80
2018-12-07T19:18:06.300Z,0.93
2018-12-07T19:20:34.670Z,0.98
2018-12-07T19:26:14.157Z,1.10
2018-12-07T19:31:59.236Z,0.65
2018-12-07T19:34:29.439Z,0.80
2018-12-07T19:37:02.878Z,0.60
2018-12-07T19:39:34.136Z,0.60
2018-12-07T19:42:05.868Z,1.00
2018-12-07T19:44:36.770Z,0.90
2018-12-07T19:47:13.582Z,0.75
2018-12-07T19:49:44.620Z,0.70
2018-12-07T19:52:16.202Z,0.75
2018-12-07T19:54:50.749Z,0.90
2018-12-07T19:57:27.148Z,0.80
2018-12-07T20:00:14.049Z,0.80
2018-12-07T20:02:46.812Z,0.80
2018-12-07T20:05:18.106Z,0.85
2018-12-07T20:07:47.674Z,0.80
2018-12-07T20:10:18.790Z,0.60
2018-12-07T20:12:52.172Z,1.20
2018-12-07T20:15:22.847Z,0.90
2018-12-07T20:18:16.210Z,0.70
2018-12-07T20:20:55.594Z,0.80
2018-12-07T20:23:27.039Z,0.95
2018-12-07T20:26:00.190Z,0.80
2018-12-07T20:28:38.476Z,1.15
2018-12-07T20:31:13.707Z,0.60
2018-12-07T20:33:49.201Z,1.10
2018-12-07T20:36:20.477Z,0.95
2018-12-07T20:38:50.032Z,1.00
2018-12-07T20:41:20.276Z,1.37
2018-12-07T20:43:51.497Z,1.05
2018-12-07T20:48:58.507Z,1.27
2018-12-07T20:51:49.069Z,0.75
2018-12-07T20:54:20.622Z,0.98
2018-12-07T20:56:55.552Z,0.82
2018-12-07T20:59:35.065Z,0.82
2018-12-07T21:02:06.062Z,1.57
2018-12-07T21:04:44.769Z,0.60
2018-12-07T21:07:38.500Z,1.90
2018-12-07T21:11:22.757Z,0.90
2018-12-07T21:14:21.005Z,0.60
2018-12-07T21:17:08.086Z,0.85
2018-12-07T21:19:43.878Z,0.82
2018-12-07T21:22:24.626Z,0.68
2018-12-07T21:24:57.341Z,0.50
2018-12-07T21:27:37.774Z,0.82
2018-12-07T21:30:50.281Z,0.75
2018-12-07T21:33:28.282Z,0.53
2018-12-07T21:36:34.736Z,0.78
2018-12-07T21:39:11.736Z,1.15
2018-12-07T21:41:47.983Z,1.05
2018-12-07T21:44:27.603Z,0.72
2018-12-07T21:47:04.950Z,1.17
2018-12-07T21:49:43.780Z,1.20
2018-12-07T21:52:26.530Z,0.90
2018-12-07T21:58:44.793Z,0.70
2018-12-07T22:01:22.477Z,0.65
2018-12-07T22:03:54.586Z,0.90
2018-12-07T22:06:30.009Z,1.15
2018-12-07T22:09:11.747Z,0.80
2018-12-07T22:11:43.634Z,0.90
2018-12-07T22:17:14.909Z,1.10
2018-12-07T22:19:46.473Z,0.70
2018-12-07T22:22:16.442Z,1.00
2018-12-07T22:24:53.267Z,0.80
2018-12-07T22:27:25.801Z,0.90
2018-12-07T22:29:58.573Z,0.95
2018-12-07T22:32:32.269Z,1.40
2018-12-07T22:35:10.494Z,1.27
2018-12-07T22:37:40.957Z,0.70
2018-12-07T22:40:16.091Z,1.12
2018-12-07T22:42:49.499Z,0.75
2018-12-07T22:45:27.512Z,1.10
2018-12-07T22:48:02.619Z,1.15
2018-12-07T22:50:32.854Z,1.15
2018-12-07T22:53:03.414Z,1.40
2018-12-07T22:55:33.045Z,1.57
2018-12-07T22:58:03.728Z,1.67
2018-12-07T23:00:43.572Z,0.90
2018-12-07T23:03:16.054Z,1.05
2018-12-07T23:05:49.808Z,1.77
2018-12-07T23:08:24.355Z,1.72
2018-12-07T23:10:55.928Z,1.20
2018-12-07T23:13:53.993Z,1.40
2018-12-07T23:16:27.456Z,1.50
2018-12-07T23:19:07.762Z,1.22
2018-12-07T23:21:49.224Z,2.00
2018-12-07T23:24:22.992Z,1.50
2018-12-07T23:26:52.977Z,1.17
2018-12-07T23:29:31.198Z,1.22
2018-12-07T23:31:59.964Z,1.70
2018-12-07T23:34:29.305Z,1.15
2018-12-07T23:36:59.642Z,1.12
2018-12-07T23:39:34.267Z,1.30
2018-12-07T23:42:06.627Z,0.82
2018-12-07T23:44:41.247Z,1.40
2018-12-07T23:47:13.965Z,1.10
2018-12-07T23:49:48.643Z,1.30
2018-12-07T23:52:21.335Z,1.60
2018-12-07T23:54:52.411Z,1.32
2018-12-07T23:57:21.589Z,1.22
2018-12-07T23:59:55.884Z,1.50
